createdAt,value
2023-07-18T00:00:49.149Z,999.90
2023-07-18T00:03:16.806Z,997.55
2023-07-18T00:05:43.531Z,999.90
2023-07-18T00:08:10.438Z,999.90
2023-07-18T00:10:37.852Z,997.20
2023-07-18T00:13:05.266Z,991.05
2023-07-18T00:15:32.629Z,999.90
2023-07-18T00:18:00.396Z,999.90
2023-07-18T00:20:27.320Z,999.90
2023-07-18T00:22:53.926Z,999.90
2023-07-18T00:25:22.155Z,999.90
2023-07-18T00:27:55.056Z,999.90
2023-07-18T00:30:22.892Z,999.90
2023-07-18T00:32:49.579Z,999.90
2023-07-18T00:35:17.519Z,999.90
2023-07-18T00:37:44.764Z,999.90
2023-07-18T00:40:13.129Z,999.90
2023-07-18T00:42:40.794Z,999.90
2023-07-18T00:45:08.623Z,999.80
2023-07-18T00:47:41.833Z,999.90
2023-07-18T00:50:10.490Z,999.85
2023-07-18T00:52:42.262Z,999.90
2023-07-18T00:55:12.489Z,999.90
2023-07-18T00:57:40.747Z,999.90
2023-07-18T01:00:10.465Z,998.95
2023-07-18T01:02:41.302Z,991.40
2023-07-18T01:05:09.435Z,968.83
2023-07-18T01:07:40.050Z,998.42
2023-07-18T01:10:26.901Z,999.90
2023-07-18T01:12:58.100Z,999.90
2023-07-18T01:15:26.641Z,992.28
2023-07-18T01:17:53.607Z,995.83
2023-07-18T01:20:22.858Z,944.63
2023-07-18T01:22:51.975Z,997.30
2023-07-18T01:25:19.271Z,951.22
2023-07-18T01:27:51.378Z,981.22
2023-07-18T01:30:28.408Z,988.00
2023-07-18T01:32:55.840Z,996.38
2023-07-18T01:35:26.353Z,987.58
2023-07-18T01:37:53.992Z,997.03
2023-07-18T01:40:21.923Z,998.55
2023-07-18T01:42:53.705Z,991.17
2023-07-18T01:45:24.228Z,972.05
2023-07-18T01:47:52.407Z,979.30
2023-07-18T01:50:19.933Z,966.30
2023-07-18T01:52:48.278Z,960.35
2023-07-18T01:55:15.987Z,972.53
2023-07-18T01:57:47.254Z,980.72
2023-07-18T02:00:20.465Z,996.85
2023-07-18T02:02:49.895Z,971.13
2023-07-18T02:05:20.026Z,985.95
2023-07-18T02:07:47.938Z,996.03
2023-07-18T02:10:16.120Z,999.90
2023-07-18T02:12:42.620Z,999.90
2023-07-18T02:15:09.977Z,999.90
2023-07-18T02:17:36.650Z,999.90
2023-07-18T02:20:06.861Z,999.90
2023-07-18T02:22:35.226Z,999.90
2023-07-18T02:25:06.163Z,999.90
2023-07-18T02:27:35.050Z,996.20
2023-07-18T02:30:02.279Z,975.10
2023-07-18T02:32:31.646Z,952.58
2023-07-18T02:34:59.009Z,955.90
2023-07-18T02:37:26.399Z,966.75
2023-07-18T02:39:53.045Z,947.55
2023-07-18T02:42:19.775Z,990.85
2023-07-18T02:44:47.429Z,975.33
2023-07-18T02:47:15.155Z,944.38
2023-07-18T02:49:42.203Z,917.40
2023-07-18T02:52:09.351Z,915.40
2023-07-18T02:54:36.100Z,907.05
2023-07-18T02:57:02.633Z,903.70
2023-07-18T02:59:29.258Z,900.70
2023-07-18T03:01:58.027Z,880.80
2023-07-18T03:04:26.845Z,908.92
2023-07-18T03:06:54.097Z,900.08
2023-07-18T03:09:22.991Z,905.25
2023-07-18T03:11:52.953Z,869.90
2023-07-18T03:14:20.105Z,897.97
2023-07-18T03:16:46.880Z,902.58
2023-07-18T03:19:15.595Z,920.08
2023-07-18T03:21:44.548Z,931.10
2023-07-18T03:24:11.362Z,882.28
2023-07-18T03:26:37.946Z,902.90
2023-07-18T03:29:06.326Z,909.95
2023-07-18T03:31:34.130Z,911.17
2023-07-18T03:34:01.771Z,937.70
2023-07-18T03:36:28.591Z,905.83
2023-07-18T03:38:55.180Z,894.35
2023-07-18T03:41:22.041Z,910.85
2023-07-18T03:43:48.933Z,917.78
2023-07-18T03:46:15.441Z,928.17
2023-07-18T03:48:42.166Z,887.72
2023-07-18T03:51:09.513Z,883.90
2023-07-18T03:53:36.539Z,884.63
2023-07-18T03:56:07.197Z,842.75
2023-07-18T03:58:34.853Z,807.10
2023-07-18T04:01:08.352Z,849.65
2023-07-18T04:03:35.456Z,882.05
2023-07-18T04:06:02.553Z,864.83
2023-07-18T04:08:29.950Z,860.40
2023-07-18T04:10:59.013Z,840.95
2023-07-18T04:13:26.427Z,818.65
2023-07-18T04:15:56.369Z,796.30
2023-07-18T04:18:23.633Z,803.15
2023-07-18T04:20:52.910Z,810.47
2023-07-18T04:23:19.565Z,855.10
2023-07-18T04:25:59.545Z,859.30
2023-07-18T04:28:28.241Z,859.95
2023-07-18T04:30:55.121Z,867.58
2023-07-18T04:33:21.829Z,872.38
2023-07-18T04:35:48.353Z,900.00
2023-07-18T04:38:15.109Z,907.25
2023-07-18T04:40:42.384Z,933.25
2023-07-18T04:43:09.788Z,932.90
2023-07-18T04:45:44.155Z,937.65
2023-07-18T04:50:38.431Z,854.72
2023-07-18T04:53:04.934Z,888.05
2023-07-18T04:55:31.456Z,914.08
2023-07-18T04:57:58.154Z,959.92
2023-07-18T05:00:24.859Z,942.28
2023-07-18T05:02:51.449Z,945.10
2023-07-18T05:05:19.140Z,963.83
2023-07-18T05:07:46.097Z,991.05
2023-07-18T05:10:12.619Z,971.88
2023-07-18T05:12:39.449Z,970.78
2023-07-18T05:15:06.520Z,979.88
2023-07-18T05:17:33.124Z,978.53
2023-07-18T05:19:59.814Z,995.78
2023-07-18T05:22:26.365Z,993.90
2023-07-18T05:24:52.806Z,957.72
2023-07-18T05:27:19.248Z,912.30
2023-07-18T05:29:45.649Z,933.05
2023-07-18T05:32:12.113Z,960.20
2023-07-18T05:34:38.895Z,929.13
2023-07-18T05:37:05.695Z,930.55
2023-07-18T05:39:32.468Z,956.75
2023-07-18T05:41:59.382Z,938.45
2023-07-18T05:44:25.802Z,963.88
2023-07-18T05:46:52.258Z,952.70
2023-07-18T05:49:18.737Z,914.60
2023-07-18T05:51:45.303Z,899.40
2023-07-18T05:54:17.113Z,898.55
2023-07-18T05:56:50.063Z,892.25
2023-07-18T05:59:27.532Z,890.13
2023-07-18T06:01:54.299Z,823.03
2023-07-18T06:04:22.898Z,826.15
2023-07-18T06:06:51.073Z,819.15
2023-07-18T06:09:18.209Z,830.63
2023-07-18T06:11:51.493Z,844.35
2023-07-18T06:14:18.001Z,797.22
2023-07-18T06:19:34.754Z,777.92
2023-07-18T06:22:01.518Z,816.97
2023-07-18T06:24:31.118Z,845.53
2023-07-18T06:27:00.728Z,841.38
2023-07-18T06:29:29.861Z,835.92
2023-07-18T06:32:33.755Z,802.35
2023-07-18T06:35:06.215Z,676.97
2023-07-18T06:37:49.586Z,787.30
2023-07-18T06:40:16.896Z,811.13
2023-07-18T06:42:43.841Z,831.72
2023-07-18T06:45:17.237Z,775.33
2023-07-18T06:47:46.462Z,708.42
2023-07-18T06:50:13.297Z,686.90
2023-07-18T06:52:39.999Z,681.75
2023-07-18T06:55:11.715Z,703.38
2023-07-18T06:57:41.917Z,689.83
2023-07-18T07:00:12.786Z,676.78
2023-07-18T07:02:39.302Z,585.55
2023-07-18T07:05:06.056Z,506.38
2023-07-18T07:07:36.061Z,559.65
2023-07-18T07:10:05.076Z,603.67
2023-07-18T07:12:37.198Z,551.42
2023-07-18T07:15:07.425Z,515.10
2023-07-18T07:17:36.902Z,491.48
2023-07-18T07:20:06.201Z,506.77
2023-07-18T07:22:35.766Z,532.75
2023-07-18T07:25:04.397Z,492.55
2023-07-18T07:27:30.997Z,534.22
2023-07-18T07:29:57.559Z,411.17
2023-07-18T07:32:24.072Z,430.67
2023-07-18T07:34:50.771Z,366.85
2023-07-18T07:37:17.431Z,281.58
2023-07-18T07:39:44.515Z,79.93
2023-07-18T07:42:11.048Z,158.65
2023-07-18T07:44:38.019Z,252.63
2023-07-18T07:47:04.725Z,86.97
2023-07-18T07:49:31.305Z,72.00
2023-07-18T07:52:05.050Z,126.47
2023-07-18T07:54:31.874Z,167.45
2023-07-18T07:56:58.387Z,100.45
2023-07-18T07:59:24.881Z,66.05
2023-07-18T08:01:53.624Z,172.43
2023-07-18T08:04:23.582Z,285.95
2023-07-18T08:06:54.590Z,205.48
2023-07-18T08:09:21.665Z,66.45
2023-07-18T08:11:54.993Z,79.95
2023-07-18T08:14:23.457Z,56.67
2023-07-18T08:16:50.400Z,58.92
2023-07-18T08:19:17.241Z,62.92
2023-07-18T08:21:44.170Z,174.65
2023-07-18T08:24:10.774Z,117.78
2023-07-18T08:26:37.512Z,67.10
2023-07-18T08:29:04.229Z,79.22
2023-07-18T08:31:31.151Z,63.65
2023-07-18T08:33:59.350Z,57.05
2023-07-18T08:36:27.045Z,55.42
2023-07-18T08:38:53.762Z,49.20
2023-07-18T08:41:23.445Z,51.33
2023-07-18T08:43:50.383Z,58.03
2023-07-18T08:46:17.930Z,57.05
2023-07-18T08:48:46.047Z,50.28
2023-07-18T08:51:13.607Z,54.08
2023-07-18T08:53:40.917Z,58.38
2023-07-18T08:56:12.002Z,62.22
2023-07-18T08:58:39.104Z,55.67
2023-07-18T09:01:06.474Z,60.92
2023-07-18T09:03:33.259Z,48.53
2023-07-18T09:06:04.862Z,50.90
2023-07-18T09:08:44.018Z,52.67
2023-07-18T09:11:14.523Z,52.33
2023-07-18T09:13:44.755Z,50.42
2023-07-18T09:16:23.687Z,55.80
2023-07-18T09:18:51.408Z,48.60
2023-07-18T09:21:19.691Z,51.00
2023-07-18T09:23:51.095Z,42.72
2023-07-18T09:26:19.263Z,39.85
2023-07-18T09:28:49.594Z,36.63
2023-07-18T09:31:20.666Z,44.03
2023-07-18T09:33:48.581Z,43.30
2023-07-18T09:36:19.741Z,45.95
2023-07-18T09:38:50.160Z,46.05
2023-07-18T09:41:21.634Z,29.13
2023-07-18T09:43:49.555Z,48.10
2023-07-18T09:46:18.059Z,34.05
2023-07-18T09:48:47.974Z,29.80
2023-07-18T09:51:21.681Z,27.92
2023-07-18T09:53:49.639Z,26.52
2023-07-18T09:56:18.157Z,28.20
2023-07-18T09:58:48.132Z,27.88
2023-07-18T10:01:21.149Z,32.45
2023-07-18T10:03:53.879Z,41.33
2023-07-18T10:06:22.091Z,26.75
2023-07-18T10:08:49.402Z,28.40
2023-07-18T10:11:16.120Z,28.75
2023-07-18T10:14:03.754Z,27.10
2023-07-18T10:16:32.446Z,33.05
2023-07-18T10:18:59.084Z,40.63
2023-07-18T10:21:33.631Z,30.35
2023-07-18T10:24:22.326Z,31.27
2023-07-18T10:26:51.894Z,31.08
2023-07-18T10:29:18.832Z,29.02
2023-07-18T10:31:46.323Z,33.88
2023-07-18T10:34:17.629Z,39.13
2023-07-18T10:36:59.173Z,44.00
2023-07-18T10:39:51.216Z,28.30
2023-07-18T10:42:21.807Z,30.90
2023-07-18T10:44:49.482Z,26.27
2023-07-18T10:47:17.376Z,27.85
2023-07-18T10:49:48.501Z,34.70
2023-07-18T10:52:16.449Z,33.20
2023-07-18T10:54:51.874Z,40.30
2023-07-18T10:57:33.984Z,33.53
2023-07-18T11:00:01.759Z,39.50
2023-07-18T11:02:29.383Z,32.30
2023-07-18T11:04:55.934Z,38.83
2023-07-18T11:07:34.355Z,36.33
2023-07-18T11:10:01.788Z,35.58
2023-07-18T11:12:28.241Z,38.17
2023-07-18T11:14:56.710Z,35.63
2023-07-18T11:17:24.873Z,37.15
2023-07-18T11:19:51.362Z,29.75
2023-07-18T11:22:18.309Z,30.13
2023-07-18T11:24:46.452Z,30.25
2023-07-18T11:27:18.902Z,30.02
2023-07-18T11:29:59.065Z,36.40
2023-07-18T11:32:41.487Z,29.77
2023-07-18T11:35:10.115Z,32.92
2023-07-18T11:37:42.384Z,34.80
2023-07-18T11:40:10.604Z,31.77
2023-07-18T11:42:54.602Z,34.42
2023-07-18T11:45:22.847Z,37.97
2023-07-18T11:47:52.130Z,34.25
2023-07-18T11:50:19.957Z,40.28
2023-07-18T11:52:53.670Z,36.78
2023-07-18T11:55:22.920Z,36.20
2023-07-18T11:57:50.484Z,34.45
2023-07-18T12:00:18.500Z,30.02
2023-07-18T12:02:47.172Z,32.35
2023-07-18T12:05:15.290Z,31.27
2023-07-18T12:07:45.589Z,31.60
2023-07-18T12:10:12.975Z,33.95
2023-07-18T12:12:43.185Z,34.10
2023-07-18T12:15:12.948Z,34.50
2023-07-18T12:17:39.698Z,30.10
2023-07-18T12:20:10.217Z,33.30
2023-07-18T12:22:38.701Z,34.10
2023-07-18T12:25:05.784Z,34.65
2023-07-18T12:27:32.351Z,29.08
2023-07-18T12:29:58.797Z,25.80
2023-07-18T12:32:29.137Z,23.90
2023-07-18T12:34:57.900Z,32.63
2023-07-18T12:37:24.550Z,34.10
2023-07-18T12:39:51.023Z,35.80
2023-07-18T12:42:17.563Z,38.40
2023-07-18T12:44:45.790Z,39.28
2023-07-18T12:47:13.112Z,40.28
2023-07-18T12:52:09.833Z,43.67
2023-07-18T12:54:36.317Z,42.33
2023-07-18T12:57:03.121Z,43.63
2023-07-18T12:59:29.692Z,43.28
2023-07-18T13:01:57.000Z,41.67
2023-07-18T13:04:24.585Z,45.15
2023-07-18T13:06:51.719Z,44.05
2023-07-18T13:09:18.190Z,44.45
2023-07-18T13:11:45.730Z,46.63
2023-07-18T13:14:14.644Z,47.10
2023-07-18T13:16:41.156Z,47.53
2023-07-18T13:19:07.629Z,31.45
2023-07-18T13:21:34.127Z,41.28
2023-07-18T13:24:00.567Z,32.75
2023-07-18T13:26:27.198Z,40.80
2023-07-18T13:28:53.728Z,23.77
2023-07-18T13:31:20.401Z,22.40
2023-07-18T13:33:49.197Z,30.35
2023-07-18T13:36:15.828Z,26.23
2023-07-18T13:38:42.306Z,19.08
2023-07-18T13:41:12.029Z,19.45
2023-07-18T13:43:40.488Z,17.73
2023-07-18T13:46:07.507Z,22.42
2023-07-18T13:48:34.626Z,21.48
2023-07-18T13:51:01.705Z,21.40
2023-07-18T13:53:28.204Z,19.27
2023-07-18T13:55:56.161Z,22.30
2023-07-18T13:58:23.346Z,26.05
2023-07-18T14:00:50.023Z,22.95
2023-07-18T14:03:33.257Z,20.92
2023-07-18T14:06:02.198Z,22.65
2023-07-18T14:08:30.539Z,29.27
2023-07-18T14:10:57.379Z,29.92
2023-07-18T14:13:23.883Z,26.77
2023-07-18T14:15:50.500Z,23.27
2023-07-18T14:18:17.021Z,27.02
2023-07-18T14:20:43.465Z,30.48
2023-07-18T14:23:09.966Z,28.20
2023-07-18T14:25:36.491Z,25.65
2023-07-18T14:28:03.001Z,30.35
2023-07-18T14:30:29.766Z,23.17
2023-07-18T14:32:56.197Z,22.83
2023-07-18T14:35:23.083Z,22.48
2023-07-18T14:37:51.541Z,32.42
2023-07-18T14:40:18.245Z,24.23
2023-07-18T14:42:45.148Z,29.42
2023-07-18T14:45:11.735Z,24.75
2023-07-18T14:47:38.180Z,26.10
2023-07-18T14:50:05.052Z,25.02
2023-07-18T14:52:31.778Z,30.13
2023-07-18T14:54:58.520Z,33.45
2023-07-18T14:57:26.618Z,27.27
2023-07-18T14:59:54.300Z,32.13
2023-07-18T15:02:21.549Z,25.77
2023-07-18T15:04:48.310Z,29.02
2023-07-18T15:07:14.914Z,33.75
2023-07-18T15:09:41.301Z,30.35
2023-07-18T15:12:08.130Z,26.25
2023-07-18T15:14:37.418Z,22.90
2023-07-18T15:17:04.969Z,21.90
2023-07-18T15:19:32.853Z,23.35
2023-07-18T15:22:00.422Z,21.52
2023-07-18T15:24:26.946Z,20.02
2023-07-18T15:26:53.424Z,21.65
2023-07-18T15:29:19.952Z,22.67
2023-07-18T15:31:46.479Z,18.20
2023-07-18T15:34:13.044Z,17.33
2023-07-18T15:36:39.667Z,15.43
2023-07-18T15:39:06.222Z,14.18
2023-07-18T15:41:32.728Z,16.75
2023-07-18T15:43:59.154Z,18.17
2023-07-18T15:46:25.928Z,15.20
2023-07-18T15:48:52.510Z,18.05
2023-07-18T15:51:18.947Z,16.92
2023-07-18T15:53:45.414Z,21.70
2023-07-18T15:56:15.362Z,20.52
2023-07-18T15:58:42.270Z,22.20
2023-07-18T16:01:08.804Z,23.88
2023-07-18T16:03:35.287Z,23.88
2023-07-18T16:06:01.855Z,22.90
2023-07-18T16:08:28.276Z,25.08
2023-07-18T16:10:55.100Z,25.67
2023-07-18T16:13:21.577Z,25.45
2023-07-18T16:15:48.545Z,24.88
2023-07-18T16:18:15.140Z,23.88
2023-07-18T16:20:41.619Z,22.20
2023-07-18T16:23:08.174Z,23.02
2023-07-18T16:25:34.640Z,22.92
2023-07-18T16:28:01.075Z,23.48
2023-07-18T16:30:27.489Z,22.48
2023-07-18T16:32:55.069Z,20.65
2023-07-18T16:35:22.102Z,24.58
2023-07-18T16:37:48.591Z,20.73
2023-07-18T16:40:15.101Z,24.92
2023-07-18T16:42:41.765Z,22.70
2023-07-18T16:45:09.024Z,23.65
2023-07-18T16:47:35.542Z,24.35
2023-07-18T16:50:01.958Z,22.15
2023-07-18T16:52:28.521Z,21.10
2023-07-18T16:54:54.913Z,22.65
2023-07-18T16:57:24.712Z,28.77
2023-07-18T16:59:51.529Z,25.83
2023-07-18T17:02:17.929Z,31.73
2023-07-18T17:04:44.433Z,36.40
2023-07-18T17:07:11.008Z,32.60
2023-07-18T17:09:37.451Z,31.55
2023-07-18T17:12:04.180Z,35.03
2023-07-18T17:14:30.666Z,37.05
2023-07-18T17:16:57.118Z,36.70
2023-07-18T17:19:23.586Z,23.40
2023-07-18T17:21:50.013Z,23.25
2023-07-18T17:24:16.401Z,22.90
2023-07-18T17:26:43.307Z,20.60
2023-07-18T17:29:09.723Z,23.80
2023-07-18T17:31:36.122Z,21.20
2023-07-18T17:34:03.453Z,22.48
2023-07-18T17:36:30.250Z,19.33
2023-07-18T17:38:56.692Z,21.02
2023-07-18T17:41:23.714Z,21.00
2023-07-18T17:43:50.098Z,24.65
2023-07-18T17:46:16.747Z,24.60
2023-07-18T17:48:43.334Z,19.90
2023-07-18T17:51:09.746Z,24.88
2023-07-18T17:53:38.905Z,22.23
2023-07-18T17:56:06.024Z,20.27
2023-07-18T17:58:32.509Z,22.70
2023-07-18T18:00:59.087Z,20.67
2023-07-18T18:03:25.698Z,27.33
2023-07-18T18:05:52.903Z,27.95
2023-07-18T18:08:19.559Z,28.58
2023-07-18T18:10:47.512Z,28.20
2023-07-18T18:13:14.841Z,26.80
2023-07-18T18:15:56.407Z,30.42
2023-07-18T18:18:31.188Z,35.95
2023-07-18T18:20:58.487Z,35.50
2023-07-18T18:23:37.469Z,33.75
2023-07-18T18:26:06.987Z,34.65
2023-07-18T18:28:33.598Z,37.60
2023-07-18T18:31:00.097Z,37.83
2023-07-18T18:33:26.613Z,39.92
2023-07-18T18:35:53.735Z,38.83
2023-07-18T18:38:20.158Z,40.72
2023-07-18T18:40:46.587Z,33.63
2023-07-18T18:43:13.065Z,33.53
2023-07-18T18:45:39.503Z,31.67
2023-07-18T18:48:05.973Z,31.05
2023-07-18T18:50:32.476Z,33.00
2023-07-18T18:52:58.857Z,33.58
2023-07-18T18:55:28.143Z,33.72
2023-07-18T18:57:55.756Z,32.88
2023-07-18T19:00:22.838Z,34.10
2023-07-18T19:02:49.405Z,33.42
2023-07-18T19:05:15.837Z,42.05
2023-07-18T19:07:42.256Z,41.85
2023-07-18T19:10:10.315Z,48.35
2023-07-18T19:12:36.777Z,49.65
2023-07-18T19:15:03.615Z,48.50
2023-07-18T19:17:30.252Z,46.85
2023-07-18T19:19:56.858Z,46.40
2023-07-18T19:22:23.400Z,43.65
2023-07-18T19:24:50.126Z,45.70
2023-07-18T19:27:16.691Z,39.47
2023-07-18T19:29:43.612Z,37.72
2023-07-18T19:32:11.185Z,36.08
2023-07-18T19:34:44.864Z,35.88
2023-07-18T19:37:11.383Z,35.75
2023-07-18T19:39:38.301Z,43.85
2023-07-18T19:42:06.025Z,67.20
2023-07-18T19:44:33.041Z,125.13
2023-07-18T19:46:59.698Z,69.85
2023-07-18T19:49:26.607Z,52.65
2023-07-18T19:51:54.578Z,56.10
2023-07-18T19:54:21.054Z,58.85
2023-07-18T19:56:47.907Z,68.35
2023-07-18T19:59:14.699Z,59.10
2023-07-18T20:01:41.268Z,98.00
2023-07-18T20:04:07.986Z,128.63
2023-07-18T20:06:34.528Z,111.40
2023-07-18T20:09:01.189Z,111.80
2023-07-18T20:11:30.483Z,136.95
2023-07-18T20:13:58.605Z,72.50
2023-07-18T20:16:25.680Z,85.70
2023-07-18T20:18:57.033Z,103.00
2023-07-18T20:21:27.215Z,116.10
2023-07-18T20:23:53.717Z,139.93
2023-07-18T20:26:20.255Z,160.23
2023-07-18T20:28:46.737Z,142.68
2023-07-18T20:31:13.341Z,186.48
2023-07-18T20:33:41.778Z,116.20
2023-07-18T20:36:09.794Z,125.70
2023-07-18T20:38:36.260Z,104.97
2023-07-18T20:41:02.982Z,88.20
2023-07-18T20:43:29.636Z,173.50
2023-07-18T20:45:59.899Z,82.13
2023-07-18T20:48:28.139Z,86.80
2023-07-18T20:50:55.481Z,99.88
2023-07-18T20:53:22.561Z,100.70
2023-07-18T20:55:49.188Z,144.57
2023-07-18T20:58:15.667Z,87.13
2023-07-18T21:00:42.185Z,80.05
2023-07-18T21:03:08.778Z,80.97
2023-07-18T21:05:35.231Z,82.20
2023-07-18T21:08:02.463Z,100.20
2023-07-18T21:10:28.886Z,145.35
2023-07-18T21:12:55.299Z,191.68
2023-07-18T21:15:22.265Z,190.13
2023-07-18T21:17:48.786Z,168.20
2023-07-18T21:20:15.441Z,242.45
2023-07-18T21:22:45.097Z,278.27
2023-07-18T21:25:12.237Z,149.75
2023-07-18T21:27:38.770Z,112.03
2023-07-18T21:30:08.437Z,353.25
2023-07-18T21:32:35.746Z,408.25
2023-07-18T21:35:03.071Z,553.25
2023-07-18T21:37:30.095Z,488.27
2023-07-18T21:39:56.516Z,512.17
2023-07-18T21:42:22.965Z,510.30
2023-07-18T21:44:49.369Z,510.15
2023-07-18T21:47:15.738Z,612.00
2023-07-18T21:49:42.132Z,426.30
2023-07-18T21:52:08.549Z,600.10
2023-07-18T21:54:34.977Z,262.27
2023-07-18T21:57:01.414Z,335.40
2023-07-18T21:59:27.888Z,259.70
2023-07-18T22:01:54.315Z,382.85
2023-07-18T22:04:20.672Z,297.90
2023-07-18T22:06:47.115Z,557.15
2023-07-18T22:09:13.595Z,391.85
2023-07-18T22:11:40.101Z,634.67
2023-07-18T22:14:06.547Z,580.17
2023-07-18T22:16:33.051Z,607.45
2023-07-18T22:18:59.461Z,615.33
2023-07-18T22:21:25.924Z,614.55
2023-07-18T22:23:52.294Z,629.45
2023-07-18T22:26:18.690Z,801.35
2023-07-18T22:28:45.623Z,799.17
2023-07-18T22:31:12.587Z,793.70
2023-07-18T22:33:39.091Z,766.20
2023-07-18T22:36:05.765Z,694.97
2023-07-18T22:38:32.199Z,579.80
2023-07-18T22:40:59.939Z,640.88
2023-07-18T22:43:26.403Z,651.10
2023-07-18T22:45:52.883Z,698.85
2023-07-18T22:48:22.574Z,699.28
2023-07-18T22:50:52.020Z,758.83
2023-07-18T22:53:19.341Z,640.08
2023-07-18T22:55:49.105Z,616.10
2023-07-18T22:58:16.017Z,689.67
2023-07-18T23:00:43.266Z,704.63
2023-07-18T23:03:10.016Z,695.47
2023-07-18T23:05:37.692Z,754.28
2023-07-18T23:08:05.523Z,644.72
2023-07-18T23:10:32.798Z,634.70
2023-07-18T23:12:59.680Z,786.33
2023-07-18T23:15:26.608Z,807.90
2023-07-18T23:17:53.070Z,777.35
2023-07-18T23:20:19.799Z,770.17
2023-07-18T23:22:46.339Z,803.42
2023-07-18T23:25:13.379Z,863.53
2023-07-18T23:27:40.052Z,878.22
2023-07-18T23:30:07.349Z,870.22
2023-07-18T23:32:34.024Z,865.63
2023-07-18T23:35:00.686Z,915.63
2023-07-18T23:37:27.126Z,926.78
2023-07-18T23:39:53.751Z,932.40
2023-07-18T23:42:20.288Z,886.35
2023-07-18T23:44:46.809Z,887.92
2023-07-18T23:47:13.235Z,952.70
2023-07-18T23:49:39.712Z,944.20
2023-07-18T23:52:06.444Z,971.25
2023-07-18T23:54:32.983Z,903.80
2023-07-18T23:56:59.481Z,873.03
2023-07-18T23:59:25.954Z,819.85
